sensor_id;sensor_type;location;lat;lon;timestamp;P1;durP1;ratioP1;P2;durP2;ratioP2
75798;SDS011;70933;44.692;37.776;2023-07-28T00:00:57;2.50;;;2.10;;
75798;SDS011;70933;44.692;37.776;2023-07-28T00:01:59;3.30;;;1.90;;
75798;SDS011;70933;44.692;37.776;2023-07-28T00:03:01;3.33;;;2.15;;
75798;SDS011;70933;44.692;37.776;2023-07-28T00:04:02;2.85;;;2.00;;
75798;SDS011;70933;44.692;37.776;2023-07-28T00:05:08;2.72;;;1.73;;
75798;SDS011;70933;44.692;37.776;2023-07-28T00:06:10;2.60;;;1.80;;
75798;SDS011;70933;44.692;37.776;2023-07-28T00:07:11;4.15;;;2.28;;
75798;SDS011;70933;44.692;37.776;2023-07-28T00:08:13;3.00;;;2.10;;
75798;SDS011;70933;44.692;37.776;2023-07-28T00:09:15;2.78;;;1.85;;
75798;SDS011;70933;44.692;37.776;2023-07-28T00:10:17;2.92;;;2.47;;
75798;SDS011;70933;44.692;37.776;2023-07-28T00:11:19;4.00;;;2.42;;
75798;SDS011;70933;44.692;37.776;2023-07-28T00:12:20;2.38;;;1.80;;
75798;SDS011;70933;44.692;37.776;2023-07-28T00:13:23;2.65;;;1.90;;
75798;SDS011;70933;44.692;37.776;2023-07-28T00:14:25;3.03;;;2.58;;
75798;SDS011;70933;44.692;37.776;2023-07-28T00:16:30;2.53;;;1.80;;
75798;SDS011;70933;44.692;37.776;2023-07-28T00:17:31;3.30;;;2.25;;
75798;SDS011;70933;44.692;37.776;2023-07-28T00:18:33;3.00;;;2.15;;
75798;SDS011;70933;44.692;37.776;2023-07-28T00:19:35;4.18;;;2.53;;
75798;SDS011;70933;44.692;37.776;2023-07-28T00:20:37;2.30;;;1.73;;
75798;SDS011;70933;44.692;37.776;2023-07-28T00:21:39;2.97;;;2.15;;
75798;SDS011;70933;44.692;37.776;2023-07-28T00:22:40;3.63;;;1.75;;
75798;SDS011;70933;44.692;37.776;2023-07-28T00:23:42;2.45;;;1.90;;
75798;SDS011;70933;44.692;37.776;2023-07-28T00:24:44;3.35;;;2.17;;
75798;SDS011;70933;44.692;37.776;2023-07-28T00:25:46;2.92;;;2.50;;
75798;SDS011;70933;44.692;37.776;2023-07-28T00:26:48;3.42;;;2.28;;
75798;SDS011;70933;44.692;37.776;2023-07-28T00:27:49;2.80;;;1.90;;
75798;SDS011;70933;44.692;37.776;2023-07-28T00:28:51;2.28;;;1.30;;
75798;SDS011;70933;44.692;37.776;2023-07-28T00:29:53;4.03;;;2.03;;
75798;SDS011;70933;44.692;37.776;2023-07-28T00:33:00;2.53;;;1.98;;
75798;SDS011;70933;44.692;37.776;2023-07-28T00:34:02;2.65;;;2.45;;
75798;SDS011;70933;44.692;37.776;2023-07-28T00:35:04;2.88;;;2.22;;
75798;SDS011;70933;44.692;37.776;2023-07-28T00:36:07;2.92;;;2.13;;
75798;SDS011;70933;44.692;37.776;2023-07-28T00:37:09;3.13;;;2.47;;
75798;SDS011;70933;44.692;37.776;2023-07-28T00:38:11;3.65;;;1.98;;
75798;SDS011;70933;44.692;37.776;2023-07-28T00:39:13;2.83;;;2.17;;
75798;SDS011;70933;44.692;37.776;2023-07-28T00:40:15;2.95;;;2.15;;
75798;SDS011;70933;44.692;37.776;2023-07-28T00:41:17;3.47;;;1.83;;
75798;SDS011;70933;44.692;37.776;2023-07-28T00:42:19;2.83;;;2.08;;
75798;SDS011;70933;44.692;37.776;2023-07-28T00:43:20;3.30;;;1.98;;
75798;SDS011;70933;44.692;37.776;2023-07-28T00:44:22;2.85;;;1.73;;
75798;SDS011;70933;44.692;37.776;2023-07-28T00:45:24;2.97;;;2.00;;
75798;SDS011;70933;44.692;37.776;2023-07-28T00:46:26;2.80;;;2.05;;
75798;SDS011;70933;44.692;37.776;2023-07-28T00:47:28;3.33;;;2.28;;
75798;SDS011;70933;44.692;37.776;2023-07-28T00:48:30;3.22;;;2.03;;
75798;SDS011;70933;44.692;37.776;2023-07-28T00:49:33;3.72;;;2.30;;
75798;SDS011;70933;44.692;37.776;2023-07-28T00:50:35;2.50;;;1.50;;
75798;SDS011;70933;44.692;37.776;2023-07-28T00:51:37;3.28;;;1.88;;
75798;SDS011;70933;44.692;37.776;2023-07-28T00:52:40;3.40;;;1.88;;
75798;SDS011;70933;44.692;37.776;2023-07-28T00:53:42;2.80;;;1.90;;
75798;SDS011;70933;44.692;37.776;2023-07-28T00:54:44;2.55;;;1.92;;
75798;SDS011;70933;44.692;37.776;2023-07-28T00:55:46;3.35;;;2.05;;
75798;SDS011;70933;44.692;37.776;2023-07-28T00:56:49;3.00;;;1.80;;
75798;SDS011;70933;44.692;37.776;2023-07-28T00:57:51;2.50;;;1.95;;
75798;SDS011;70933;44.692;37.776;2023-07-28T00:58:53;2.63;;;1.92;;
75798;SDS011;70933;44.692;37.776;2023-07-28T00:59:55;3.00;;;2.38;;
75798;SDS011;70933;44.692;37.776;2023-07-28T01:00:57;3.55;;;1.83;;
75798;SDS011;70933;44.692;37.776;2023-07-28T01:01:59;2.50;;;1.52;;
75798;SDS011;70933;44.692;37.776;2023-07-28T01:03:02;3.35;;;2.10;;
75798;SDS011;70933;44.692;37.776;2023-07-28T01:05:06;3.03;;;1.70;;
75798;SDS011;70933;44.692;37.776;2023-07-28T01:06:18;2.95;;;2.15;;
75798;SDS011;70933;44.692;37.776;2023-07-28T01:10:00;2.35;;;1.77;;
75798;SDS011;70933;44.692;37.776;2023-07-28T01:11:07;3.03;;;1.52;;
75798;SDS011;70933;44.692;37.776;2023-07-28T01:12:09;2.60;;;1.67;;
75798;SDS011;70933;44.692;37.776;2023-07-28T01:13:10;3.30;;;2.03;;
75798;SDS011;70933;44.692;37.776;2023-07-28T01:14:12;3.05;;;1.63;;
75798;SDS011;70933;44.692;37.776;2023-07-28T01:15:14;2.70;;;1.50;;
75798;SDS011;70933;44.692;37.776;2023-07-28T01:16:16;2.47;;;1.80;;
75798;SDS011;70933;44.692;37.776;2023-07-28T01:17:18;2.40;;;1.60;;
75798;SDS011;70933;44.692;37.776;2023-07-28T01:18:20;3.80;;;2.20;;
75798;SDS011;70933;44.692;37.776;2023-07-28T01:19:22;2.65;;;1.75;;
75798;SDS011;70933;44.692;37.776;2023-07-28T01:20:25;2.63;;;1.70;;
75798;SDS011;70933;44.692;37.776;2023-07-28T01:21:33;3.35;;;1.98;;
75798;SDS011;70933;44.692;37.776;2023-07-28T01:24:42;2.90;;;2.30;;
75798;SDS011;70933;44.692;37.776;2023-07-28T01:26:09;2.83;;;1.83;;
75798;SDS011;70933;44.692;37.776;2023-07-28T01:27:12;2.90;;;1.67;;
75798;SDS011;70933;44.692;37.776;2023-07-28T01:28:17;2.70;;;1.63;;
75798;SDS011;70933;44.692;37.776;2023-07-28T01:29:20;3.22;;;1.52;;
75798;SDS011;70933;44.692;37.776;2023-07-28T01:30:23;2.63;;;1.52;;
75798;SDS011;70933;44.692;37.776;2023-07-28T01:31:27;3.20;;;1.88;;
75798;SDS011;70933;44.692;37.776;2023-07-28T01:32:29;2.95;;;2.22;;
75798;SDS011;70933;44.692;37.776;2023-07-28T01:33:31;3.63;;;1.65;;
75798;SDS011;70933;44.692;37.776;2023-07-28T01:34:33;2.72;;;1.40;;
75798;SDS011;70933;44.692;37.776;2023-07-28T01:35:37;2.20;;;1.50;;
75798;SDS011;70933;44.692;37.776;2023-07-28T01:36:39;2.35;;;1.70;;
75798;SDS011;70933;44.692;37.776;2023-07-28T01:37:41;3.17;;;1.75;;
75798;SDS011;70933;44.692;37.776;2023-07-28T01:38:43;2.80;;;1.40;;
75798;SDS011;70933;44.692;37.776;2023-07-28T01:39:45;3.60;;;1.88;;
75798;SDS011;70933;44.692;37.776;2023-07-28T01:40:47;3.63;;;1.70;;
75798;SDS011;70933;44.692;37.776;2023-07-28T01:41:48;3.15;;;1.90;;
75798;SDS011;70933;44.692;37.776;2023-07-28T01:42:50;3.95;;;1.88;;
75798;SDS011;70933;44.692;37.776;2023-07-28T01:43:52;3.08;;;1.83;;
75798;SDS011;70933;44.692;37.776;2023-07-28T01:44:56;2.35;;;1.40;;
75798;SDS011;70933;44.692;37.776;2023-07-28T01:45:58;3.03;;;1.75;;
75798;SDS011;70933;44.692;37.776;2023-07-28T01:47:00;3.40;;;1.90;;
75798;SDS011;70933;44.692;37.776;2023-07-28T01:48:02;2.88;;;1.88;;
75798;SDS011;70933;44.692;37.776;2023-07-28T01:49:04;2.40;;;1.33;;
75798;SDS011;70933;44.692;37.776;2023-07-28T01:50:05;2.55;;;1.70;;
75798;SDS011;70933;44.692;37.776;2023-07-28T01:51:08;3.17;;;1.85;;
75798;SDS011;70933;44.692;37.776;2023-07-28T01:52:09;2.83;;;1.85;;
75798;SDS011;70933;44.692;37.776;2023-07-28T01:53:11;2.85;;;1.73;;
75798;SDS011;70933;44.692;37.776;2023-07-28T01:54:13;3.80;;;1.92;;
75798;SDS011;70933;44.692;37.776;2023-07-28T01:55:15;2.75;;;1.65;;
75798;SDS011;70933;44.692;37.776;2023-07-28T01:56:16;3.58;;;1.30;;
75798;SDS011;70933;44.692;37.776;2023-07-28T01:57:18;2.05;;;1.35;;
75798;SDS011;70933;44.692;37.776;2023-07-28T01:58:20;2.60;;;1.58;;
75798;SDS011;70933;44.692;37.776;2023-07-28T01:59:22;3.03;;;1.42;;
75798;SDS011;70933;44.692;37.776;2023-07-28T02:00:23;2.42;;;1.35;;
75798;SDS011;70933;44.692;37.776;2023-07-28T02:01:25;3.00;;;1.40;;
75798;SDS011;70933;44.692;37.776;2023-07-28T02:02:27;3.67;;;2.30;;
75798;SDS011;70933;44.692;37.776;2023-07-28T02:03:30;2.78;;;1.92;;
75798;SDS011;70933;44.692;37.776;2023-07-28T02:04:31;3.45;;;1.80;;
75798;SDS011;70933;44.692;37.776;2023-07-28T02:05:33;2.47;;;1.60;;
75798;SDS011;70933;44.692;37.776;2023-07-28T02:06:35;3.30;;;1.27;;
75798;SDS011;70933;44.692;37.776;2023-07-28T02:07:37;2.92;;;1.38;;
75798;SDS011;70933;44.692;37.776;2023-07-28T02:08:39;3.03;;;1.80;;
75798;SDS011;70933;44.692;37.776;2023-07-28T02:09:41;3.95;;;2.03;;
75798;SDS011;70933;44.692;37.776;2023-07-28T02:10:44;3.00;;;1.58;;
75798;SDS011;70933;44.692;37.776;2023-07-28T02:11:46;3.35;;;1.63;;
75798;SDS011;70933;44.692;37.776;2023-07-28T02:12:48;3.00;;;2.03;;
75798;SDS011;70933;44.692;37.776;2023-07-28T02:13:49;2.42;;;1.33;;
75798;SDS011;70933;44.692;37.776;2023-07-28T02:14:52;2.80;;;1.70;;
75798;SDS011;70933;44.692;37.776;2023-07-28T02:15:54;4.18;;;1.30;;
75798;SDS011;70933;44.692;37.776;2023-07-28T02:16:56;3.25;;;2.10;;
75798;SDS011;70933;44.692;37.776;2023-07-28T02:18:17;3.22;;;1.95;;
75798;SDS011;70933;44.692;37.776;2023-07-28T02:19:19;2.67;;;0.82;;
75798;SDS011;70933;44.692;37.776;2023-07-28T02:20:21;3.20;;;1.63;;
75798;SDS011;70933;44.692;37.776;2023-07-28T02:21:22;3.60;;;1.70;;
75798;SDS011;70933;44.692;37.776;2023-07-28T02:22:24;3.33;;;1.70;;
75798;SDS011;70933;44.692;37.776;2023-07-28T02:23:26;3.00;;;1.50;;
75798;SDS011;70933;44.692;37.776;2023-07-28T02:24:28;3.55;;;1.30;;
75798;SDS011;70933;44.692;37.776;2023-07-28T02:25:30;3.47;;;1.65;;
75798;SDS011;70933;44.692;37.776;2023-07-28T02:26:31;3.45;;;1.60;;
75798;SDS011;70933;44.692;37.776;2023-07-28T02:27:33;3.40;;;1.55;;
75798;SDS011;70933;44.692;37.776;2023-07-28T02:28:35;4.43;;;1.55;;
75798;SDS011;70933;44.692;37.776;2023-07-28T02:29:37;3.42;;;1.88;;
75798;SDS011;70933;44.692;37.776;2023-07-28T02:30:38;4.15;;;2.25;;
75798;SDS011;70933;44.692;37.776;2023-07-28T02:31:41;3.35;;;1.67;;
75798;SDS011;70933;44.692;37.776;2023-07-28T02:32:43;2.78;;;1.80;;
75798;SDS011;70933;44.692;37.776;2023-07-28T02:33:45;4.35;;;2.20;;
75798;SDS011;70933;44.692;37.776;2023-07-28T02:34:47;3.53;;;1.67;;
75798;SDS011;70933;44.692;37.776;2023-07-28T02:35:49;3.67;;;1.48;;
75798;SDS011;70933;44.692;37.776;2023-07-28T02:36:50;3.88;;;1.75;;
75798;SDS011;70933;44.692;37.776;2023-07-28T02:37:52;3.88;;;1.77;;
75798;SDS011;70933;44.692;37.776;2023-07-28T02:38:54;3.95;;;1.52;;
75798;SDS011;70933;44.692;37.776;2023-07-28T02:39:56;3.58;;;1.33;;
75798;SDS011;70933;44.692;37.776;2023-07-28T02:40:57;3.97;;;2.00;;
75798;SDS011;70933;44.692;37.776;2023-07-28T02:41:59;4.20;;;2.28;;
75798;SDS011;70933;44.692;37.776;2023-07-28T02:43:01;4.03;;;1.58;;
75798;SDS011;70933;44.692;37.776;2023-07-28T02:44:03;3.55;;;1.80;;
75798;SDS011;70933;44.692;37.776;2023-07-28T02:45:05;3.00;;;1.65;;
75798;SDS011;70933;44.692;37.776;2023-07-28T02:46:07;3.33;;;1.48;;
75798;SDS011;70933;44.692;37.776;2023-07-28T02:47:09;4.80;;;2.03;;
75798;SDS011;70933;44.692;37.776;2023-07-28T02:48:10;3.53;;;1.50;;
75798;SDS011;70933;44.692;37.776;2023-07-28T02:49:12;3.15;;;1.33;;
75798;SDS011;70933;44.692;37.776;2023-07-28T02:50:15;4.25;;;1.90;;
75798;SDS011;70933;44.692;37.776;2023-07-28T02:51:17;4.10;;;1.83;;
75798;SDS011;70933;44.692;37.776;2023-07-28T02:52:19;3.53;;;2.03;;
75798;SDS011;70933;44.692;37.776;2023-07-28T02:53:21;4.28;;;2.50;;
75798;SDS011;70933;44.692;37.776;2023-07-28T02:54:23;4.43;;;1.63;;
75798;SDS011;70933;44.692;37.776;2023-07-28T02:55:27;3.33;;;1.40;;
75798;SDS011;70933;44.692;37.776;2023-07-28T02:56:28;2.92;;;1.45;;
75798;SDS011;70933;44.692;37.776;2023-07-28T02:57:30;2.97;;;1.55;;
75798;SDS011;70933;44.692;37.776;2023-07-28T02:58:32;2.80;;;1.67;;
75798;SDS011;70933;44.692;37.776;2023-07-28T02:59:34;6.25;;;1.83;;
75798;SDS011;70933;44.692;37.776;2023-07-28T03:00:42;3.65;;;1.58;;
75798;SDS011;70933;44.692;37.776;2023-07-28T03:01:48;4.10;;;1.48;;
75798;SDS011;70933;44.692;37.776;2023-07-28T03:02:52;4.22;;;1.45;;
75798;SDS011;70933;44.692;37.776;2023-07-28T03:03:54;4.43;;;2.08;;
75798;SDS011;70933;44.692;37.776;2023-07-28T03:04:56;5.28;;;1.88;;
75798;SDS011;70933;44.692;37.776;2023-07-28T03:05:58;3.55;;;1.80;;
75798;SDS011;70933;44.692;37.776;2023-07-28T03:07:00;3.28;;;1.35;;
75798;SDS011;70933;44.692;37.776;2023-07-28T03:08:02;4.00;;;1.73;;
75798;SDS011;70933;44.692;37.776;2023-07-28T03:09:05;4.45;;;1.77;;
75798;SDS011;70933;44.692;37.776;2023-07-28T03:10:35;3.22;;;1.73;;
75798;SDS011;70933;44.692;37.776;2023-07-28T03:11:37;3.90;;;1.73;;
75798;SDS011;70933;44.692;37.776;2023-07-28T03:12:39;3.15;;;1.40;;
75798;SDS011;70933;44.692;37.776;2023-07-28T03:13:41;4.53;;;1.83;;
75798;SDS011;70933;44.692;37.776;2023-07-28T03:14:42;5.00;;;1.90;;
75798;SDS011;70933;44.692;37.776;2023-07-28T03:15:44;3.83;;;1.40;;
75798;SDS011;70933;44.692;37.776;2023-07-28T03:16:46;5.70;;;1.90;;
75798;SDS011;70933;44.692;37.776;2023-07-28T03:17:49;3.95;;;1.98;;
75798;SDS011;70933;44.692;37.776;2023-07-28T03:18:51;3.40;;;1.65;;
75798;SDS011;70933;44.692;37.776;2023-07-28T03:19:54;3.45;;;1.92;;
75798;SDS011;70933;44.692;37.776;2023-07-28T03:20:55;3.17;;;1.40;;
75798;SDS011;70933;44.692;37.776;2023-07-28T03:21:57;3.22;;;1.80;;
75798;SDS011;70933;44.692;37.776;2023-07-28T03:22:59;4.30;;;1.50;;
75798;SDS011;70933;44.692;37.776;2023-07-28T03:24:01;2.78;;;1.80;;
75798;SDS011;70933;44.692;37.776;2023-07-28T03:25:03;3.88;;;1.63;;
75798;SDS011;70933;44.692;37.776;2023-07-28T03:26:05;4.38;;;2.08;;
75798;SDS011;70933;44.692;37.776;2023-07-28T03:27:07;3.42;;;1.50;;
75798;SDS011;70933;44.692;37.776;2023-07-28T03:28:10;4.60;;;1.58;;
75798;SDS011;70933;44.692;37.776;2023-07-28T03:29:15;4.57;;;1.60;;
75798;SDS011;70933;44.692;37.776;2023-07-28T03:30:20;3.65;;;1.92;;
75798;SDS011;70933;44.692;37.776;2023-07-28T03:31:22;3.67;;;1.13;;
75798;SDS011;70933;44.692;37.776;2023-07-28T03:32:24;3.13;;;1.58;;
75798;SDS011;70933;44.692;37.776;2023-07-28T03:33:26;4.13;;;1.92;;
75798;SDS011;70933;44.692;37.776;2023-07-28T03:34:28;4.53;;;1.63;;
75798;SDS011;70933;44.692;37.776;2023-07-28T03:35:32;3.55;;;1.63;;
75798;SDS011;70933;44.692;37.776;2023-07-28T03:36:42;3.45;;;1.80;;
75798;SDS011;70933;44.692;37.776;2023-07-28T03:37:44;5.82;;;2.05;;
75798;SDS011;70933;44.692;37.776;2023-07-28T03:38:46;4.47;;;1.60;;
75798;SDS011;70933;44.692;37.776;2023-07-28T03:39:49;4.40;;;1.60;;
75798;SDS011;70933;44.692;37.776;2023-07-28T03:40:51;4.78;;;1.60;;
75798;SDS011;70933;44.692;37.776;2023-07-28T03:41:53;3.75;;;1.35;;
75798;SDS011;70933;44.692;37.776;2023-07-28T03:42:55;3.58;;;1.90;;
75798;SDS011;70933;44.692;37.776;2023-07-28T03:43:58;3.08;;;1.70;;
75798;SDS011;70933;44.692;37.776;2023-07-28T03:45:00;4.18;;;1.65;;
75798;SDS011;70933;44.692;37.776;2023-07-28T03:46:01;5.00;;;2.05;;
75798;SDS011;70933;44.692;37.776;2023-07-28T03:47:03;2.75;;;1.52;;
75798;SDS011;70933;44.692;37.776;2023-07-28T03:48:05;4.55;;;1.48;;
75798;SDS011;70933;44.692;37.776;2023-07-28T03:49:08;2.78;;;1.80;;
75798;SDS011;70933;44.692;37.776;2023-07-28T03:50:09;5.38;;;1.73;;
75798;SDS011;70933;44.692;37.776;2023-07-28T03:51:11;3.17;;;1.52;;
75798;SDS011;70933;44.692;37.776;2023-07-28T03:52:13;3.17;;;1.45;;
75798;SDS011;70933;44.692;37.776;2023-07-28T03:53:15;3.38;;;1.35;;
75798;SDS011;70933;44.692;37.776;2023-07-28T03:54:16;3.33;;;1.50;;
75798;SDS011;70933;44.692;37.776;2023-07-28T03:55:18;2.85;;;1.40;;
75798;SDS011;70933;44.692;37.776;2023-07-28T03:56:20;3.40;;;1.52;;
75798;SDS011;70933;44.692;37.776;2023-07-28T03:57:22;3.25;;;1.60;;
75798;SDS011;70933;44.692;37.776;2023-07-28T03:58:26;3.20;;;1.50;;
75798;SDS011;70933;44.692;37.776;2023-07-28T03:59:28;3.00;;;1.30;;
75798;SDS011;70933;44.692;37.776;2023-07-28T04:00:30;3.10;;;2.05;;
75798;SDS011;70933;44.692;37.776;2023-07-28T04:01:32;3.00;;;1.33;;
75798;SDS011;70933;44.692;37.776;2023-07-28T04:02:33;4.85;;;1.95;;
75798;SDS011;70933;44.692;37.776;2023-07-28T04:03:35;3.42;;;1.30;;
75798;SDS011;70933;44.692;37.776;2023-07-28T04:04:37;3.50;;;1.63;;
75798;SDS011;70933;44.692;37.776;2023-07-28T04:05:39;2.72;;;1.40;;
75798;SDS011;70933;44.692;37.776;2023-07-28T04:06:44;3.45;;;1.50;;
75798;SDS011;70933;44.692;37.776;2023-07-28T04:07:48;3.00;;;1.73;;
75798;SDS011;70933;44.692;37.776;2023-07-28T04:08:50;3.80;;;1.63;;
75798;SDS011;70933;44.692;37.776;2023-07-28T04:09:52;2.88;;;0.98;;
75798;SDS011;70933;44.692;37.776;2023-07-28T04:10:53;3.83;;;1.33;;
75798;SDS011;70933;44.692;37.776;2023-07-28T04:11:55;3.45;;;1.38;;
75798;SDS011;70933;44.692;37.776;2023-07-28T04:12:57;3.42;;;1.73;;
75798;SDS011;70933;44.692;37.776;2023-07-28T04:13:59;2.70;;;1.17;;
75798;SDS011;70933;44.692;37.776;2023-07-28T04:15:00;3.20;;;1.30;;
75798;SDS011;70933;44.692;37.776;2023-07-28T04:16:06;3.28;;;1.27;;
75798;SDS011;70933;44.692;37.776;2023-07-28T04:17:07;3.30;;;1.48;;
75798;SDS011;70933;44.692;37.776;2023-07-28T04:18:11;4.05;;;1.20;;
75798;SDS011;70933;44.692;37.776;2023-07-28T04:19:13;3.80;;;1.42;;
75798;SDS011;70933;44.692;37.776;2023-07-28T04:20:15;3.03;;;1.15;;
75798;SDS011;70933;44.692;37.776;2023-07-28T04:21:16;3.70;;;1.05;;
75798;SDS011;70933;44.692;37.776;2023-07-28T04:22:18;4.43;;;1.42;;
75798;SDS011;70933;44.692;37.776;2023-07-28T04:23:23;2.90;;;1.25;;
75798;SDS011;70933;44.692;37.776;2023-07-28T04:24:25;2.70;;;1.17;;
75798;SDS011;70933;44.692;37.776;2023-07-28T04:25:27;3.92;;;1.40;;
75798;SDS011;70933;44.692;37.776;2023-07-28T04:26:29;4.13;;;0.95;;
75798;SDS011;70933;44.692;37.776;2023-07-28T04:27:36;3.20;;;1.27;;
75798;SDS011;70933;44.692;37.776;2023-07-28T04:29:41;4.10;;;1.13;;
75798;SDS011;70933;44.692;37.776;2023-07-28T04:30:45;2.70;;;0.98;;
75798;SDS011;70933;44.692;37.776;2023-07-28T04:32:04;4.75;;;1.05;;
75798;SDS011;70933;44.692;37.776;2023-07-28T04:33:08;3.65;;;1.13;;
75798;SDS011;70933;44.692;37.776;2023-07-28T04:34:13;3.22;;;1.15;;
75798;SDS011;70933;44.692;37.776;2023-07-28T04:35:40;3.55;;;1.35;;
75798;SDS011;70933;44.692;37.776;2023-07-28T04:36:50;2.90;;;1.10;;
75798;SDS011;70933;44.692;37.776;2023-07-28T04:37:57;3.00;;;1.25;;
75798;SDS011;70933;44.692;37.776;2023-07-28T04:39:22;2.15;;;0.82;;
75798;SDS011;70933;44.692;37.776;2023-07-28T04:40:24;3.85;;;1.02;;
75798;SDS011;70933;44.692;37.776;2023-07-28T04:41:25;2.42;;;0.77;;
75798;SDS011;70933;44.692;37.776;2023-07-28T04:42:28;4.63;;;1.33;;
75798;SDS011;70933;44.692;37.776;2023-07-28T04:43:31;4.45;;;1.48;;
75798;SDS011;70933;44.692;37.776;2023-07-28T04:44:32;3.80;;;0.80;;
75798;SDS011;70933;44.692;37.776;2023-07-28T04:45:37;2.83;;;0.90;;
75798;SDS011;70933;44.692;37.776;2023-07-28T04:46:46;3.72;;;1.15;;
75798;SDS011;70933;44.692;37.776;2023-07-28T04:47:51;2.17;;;0.93;;
75798;SDS011;70933;44.692;37.776;2023-07-28T04:48:54;1.83;;;0.73;;
75798;SDS011;70933;44.692;37.776;2023-07-28T04:50:15;4.82;;;1.00;;
75798;SDS011;70933;44.692;37.776;2023-07-28T04:51:39;3.58;;;0.88;;
75798;SDS011;70933;44.692;37.776;2023-07-28T04:53:02;2.47;;;1.23;;
75798;SDS011;70933;44.692;37.776;2023-07-28T04:54:27;3.08;;;1.23;;
75798;SDS011;70933;44.692;37.776;2023-07-28T04:55:29;2.08;;;0.82;;
75798;SDS011;70933;44.692;37.776;2023-07-28T04:56:31;3.25;;;0.52;;
75798;SDS011;70933;44.692;37.776;2023-07-28T04:57:32;2.42;;;0.82;;
75798;SDS011;70933;44.692;37.776;2023-07-28T04:58:34;2.42;;;0.43;;
75798;SDS011;70933;44.692;37.776;2023-07-28T04:59:36;2.50;;;0.90;;
75798;SDS011;70933;44.692;37.776;2023-07-28T05:00:38;3.45;;;1.13;;
75798;SDS011;70933;44.692;37.776;2023-07-28T05:01:40;5.53;;;1.25;;
75798;SDS011;70933;44.692;37.776;2023-07-28T05:02:42;2.28;;;0.52;;
75798;SDS011;70933;44.692;37.776;2023-07-28T05:03:44;3.00;;;0.65;;
75798;SDS011;70933;44.692;37.776;2023-07-28T05:05:05;2.42;;;0.70;;
75798;SDS011;70933;44.692;37.776;2023-07-28T05:06:07;2.35;;;0.85;;
75798;SDS011;70933;44.692;37.776;2023-07-28T05:07:09;2.90;;;0.90;;
75798;SDS011;70933;44.692;37.776;2023-07-28T05:08:10;2.60;;;0.63;;
75798;SDS011;70933;44.692;37.776;2023-07-28T05:09:12;3.58;;;0.73;;
75798;SDS011;70933;44.692;37.776;2023-07-28T05:10:14;2.47;;;0.75;;
75798;SDS011;70933;44.692;37.776;2023-07-28T05:11:16;2.80;;;0.88;;
75798;SDS011;70933;44.692;37.776;2023-07-28T05:12:18;3.10;;;0.47;;
75798;SDS011;70933;44.692;37.776;2023-07-28T05:13:22;2.90;;;0.52;;
75798;SDS011;70933;44.692;37.776;2023-07-28T05:14:29;2.10;;;0.22;;
75798;SDS011;70933;44.692;37.776;2023-07-28T05:15:30;3.53;;;0.60;;
75798;SDS011;70933;44.692;37.776;2023-07-28T05:16:32;2.47;;;0.73;;
75798;SDS011;70933;44.692;37.776;2023-07-28T05:17:46;2.50;;;0.75;;
75798;SDS011;70933;44.692;37.776;2023-07-28T05:19:06;3.47;;;0.80;;
75798;SDS011;70933;44.692;37.776;2023-07-28T05:20:29;3.30;;;0.98;;
75798;SDS011;70933;44.692;37.776;2023-07-28T05:21:47;2.53;;;0.55;;
75798;SDS011;70933;44.692;37.776;2023-07-28T05:22:52;3.72;;;0.73;;
75798;SDS011;70933;44.692;37.776;2023-07-28T05:23:56;2.55;;;0.30;;
75798;SDS011;70933;44.692;37.776;2023-07-28T05:24:58;3.10;;;0.63;;
75798;SDS011;70933;44.692;37.776;2023-07-28T05:26:03;2.05;;;0.85;;
75798;SDS011;70933;44.692;37.776;2023-07-28T05:27:04;2.10;;;0.40;;
75798;SDS011;70933;44.692;37.776;2023-07-28T05:28:06;1.95;;;0.55;;
75798;SDS011;70933;44.692;37.776;2023-07-28T05:29:11;4.00;;;0.50;;
75798;SDS011;70933;44.692;37.776;2023-07-28T05:30:13;3.53;;;0.73;;
75798;SDS011;70933;44.692;37.776;2023-07-28T05:31:15;3.15;;;0.75;;
75798;SDS011;70933;44.692;37.776;2023-07-28T05:32:17;3.83;;;0.65;;
75798;SDS011;70933;44.692;37.776;2023-07-28T05:33:38;3.13;;;0.57;;
75798;SDS011;70933;44.692;37.776;2023-07-28T05:34:43;3.67;;;0.60;;
75798;SDS011;70933;44.692;37.776;2023-07-28T05:35:46;3.38;;;0.60;;
75798;SDS011;70933;44.692;37.776;2023-07-28T05:36:47;4.13;;;0.65;;
75798;SDS011;70933;44.692;37.776;2023-07-28T05:37:49;2.45;;;0.38;;
75798;SDS011;70933;44.692;37.776;2023-07-28T05:38:51;3.70;;;0.50;;
75798;SDS011;70933;44.692;37.776;2023-07-28T05:39:54;6.07;;;0.80;;
75798;SDS011;70933;44.692;37.776;2023-07-28T05:40:57;4.13;;;0.57;;
75798;SDS011;70933;44.692;37.776;2023-07-28T05:42:04;5.47;;;0.65;;
75798;SDS011;70933;44.692;37.776;2023-07-28T05:43:07;8.27;;;0.73;;
75798;SDS011;70933;44.692;37.776;2023-07-28T05:44:09;4.68;;;0.50;;
75798;SDS011;70933;44.692;37.776;2023-07-28T05:45:11;5.70;;;0.85;;
75798;SDS011;70933;44.692;37.776;2023-07-28T05:46:13;8.05;;;1.08;;
75798;SDS011;70933;44.692;37.776;2023-07-28T05:47:15;5.97;;;1.00;;
75798;SDS011;70933;44.692;37.776;2023-07-28T05:48:17;4.85;;;0.82;;
75798;SDS011;70933;44.692;37.776;2023-07-28T05:49:19;5.18;;;0.75;;
75798;SDS011;70933;44.692;37.776;2023-07-28T05:50:21;4.72;;;0.55;;
75798;SDS011;70933;44.692;37.776;2023-07-28T05:51:22;4.47;;;0.60;;
75798;SDS011;70933;44.692;37.776;2023-07-28T05:52:24;4.85;;;0.80;;
75798;SDS011;70933;44.692;37.776;2023-07-28T05:53:26;5.85;;;0.93;;
75798;SDS011;70933;44.692;37.776;2023-07-28T05:54:33;6.15;;;0.68;;
75798;SDS011;70933;44.692;37.776;2023-07-28T05:55:35;7.47;;;1.38;;
75798;SDS011;70933;44.692;37.776;2023-07-28T05:56:37;7.05;;;1.15;;
75798;SDS011;70933;44.692;37.776;2023-07-28T05:57:39;5.53;;;1.00;;
75798;SDS011;70933;44.692;37.776;2023-07-28T05:58:47;6.15;;;1.00;;
75798;SDS011;70933;44.692;37.776;2023-07-28T05:59:49;5.57;;;0.82;;
75798;SDS011;70933;44.692;37.776;2023-07-28T06:00:51;6.57;;;1.15;;
75798;SDS011;70933;44.692;37.776;2023-07-28T06:02:13;6.85;;;0.75;;
75798;SDS011;70933;44.692;37.776;2023-07-28T06:03:23;7.25;;;0.88;;
75798;SDS011;70933;44.692;37.776;2023-07-28T06:04:35;6.93;;;0.77;;
75798;SDS011;70933;44.692;37.776;2023-07-28T06:05:39;6.03;;;1.27;;
75798;SDS011;70933;44.692;37.776;2023-07-28T06:06:41;4.50;;;0.80;;
75798;SDS011;70933;44.692;37.776;2023-07-28T06:07:43;4.90;;;0.57;;
75798;SDS011;70933;44.692;37.776;2023-07-28T06:08:45;4.95;;;1.00;;
75798;SDS011;70933;44.692;37.776;2023-07-28T06:09:47;7.32;;;1.02;;
75798;SDS011;70933;44.692;37.776;2023-07-28T06:10:49;5.03;;;0.80;;
75798;SDS011;70933;44.692;37.776;2023-07-28T06:11:51;6.55;;;0.88;;
75798;SDS011;70933;44.692;37.776;2023-07-28T06:12:53;8.55;;;1.23;;
75798;SDS011;70933;44.692;37.776;2023-07-28T06:13:55;6.35;;;0.75;;
75798;SDS011;70933;44.692;37.776;2023-07-28T06:14:58;4.97;;;0.85;;
75798;SDS011;70933;44.692;37.776;2023-07-28T06:16:00;8.52;;;0.88;;
75798;SDS011;70933;44.692;37.776;2023-07-28T06:17:02;5.93;;;1.40;;
75798;SDS011;70933;44.692;37.776;2023-07-28T06:18:06;6.22;;;1.25;;
75798;SDS011;70933;44.692;37.776;2023-07-28T06:19:08;5.70;;;0.57;;
75798;SDS011;70933;44.692;37.776;2023-07-28T06:20:11;6.63;;;1.35;;
75798;SDS011;70933;44.692;37.776;2023-07-28T06:21:13;6.20;;;0.82;;
75798;SDS011;70933;44.692;37.776;2023-07-28T06:22:15;4.85;;;0.75;;
75798;SDS011;70933;44.692;37.776;2023-07-28T06:23:19;5.13;;;1.23;;
75798;SDS011;70933;44.692;37.776;2023-07-28T06:24:21;5.45;;;0.68;;
75798;SDS011;70933;44.692;37.776;2023-07-28T06:25:23;4.65;;;0.77;;
75798;SDS011;70933;44.692;37.776;2023-07-28T06:26:25;6.25;;;0.85;;